sensor_id;sensor_type;location;lat;lon;timestamp;P1;durP1;ratioP1;P2;durP2;ratioP2
18391;SDS011;9322;50.932;5.318;2022-07-29T00:01:22;6.03;;;2.47;;
18391;SDS011;9322;50.932;5.318;2022-07-29T00:03:47;7.43;;;2.20;;
18391;SDS011;9322;50.932;5.318;2022-07-29T00:06:14;7.63;;;2.33;;
18391;SDS011;9322;50.932;5.318;2022-07-29T00:08:39;9.07;;;2.83;;
18391;SDS011;9322;50.932;5.318;2022-07-29T00:11:05;11.07;;;2.83;;
18391;SDS011;9322;50.932;5.318;2022-07-29T00:13:31;5.27;;;2.93;;
18391;SDS011;9322;50.932;5.318;2022-07-29T00:15:56;9.87;;;3.00;;
18391;SDS011;9322;50.932;5.318;2022-07-29T00:18:22;11.10;;;2.97;;
18391;SDS011;9322;50.932;5.318;2022-07-29T00:20:48;7.77;;;2.90;;
18391;SDS011;9322;50.932;5.318;2022-07-29T00:23:14;9.17;;;3.20;;
18391;SDS011;9322;50.932;5.318;2022-07-29T00:25:39;7.37;;;2.63;;
18391;SDS011;9322;50.932;5.318;2022-07-29T00:28:05;7.17;;;2.30;;
18391;SDS011;9322;50.932;5.318;2022-07-29T00:30:31;6.00;;;2.80;;
18391;SDS011;9322;50.932;5.318;2022-07-29T00:32:56;11.57;;;2.67;;
18391;SDS011;9322;50.932;5.318;2022-07-29T00:35:22;6.23;;;3.07;;
18391;SDS011;9322;50.932;5.318;2022-07-29T00:38:06;9.57;;;2.93;;
18391;SDS011;9322;50.932;5.318;2022-07-29T00:40:32;5.63;;;2.50;;
18391;SDS011;9322;50.932;5.318;2022-07-29T00:42:59;9.40;;;2.90;;
18391;SDS011;9322;50.932;5.318;2022-07-29T00:45:24;10.97;;;2.70;;
18391;SDS011;9322;50.932;5.318;2022-07-29T00:47:50;4.43;;;2.43;;
18391;SDS011;9322;50.932;5.318;2022-07-29T00:50:16;7.23;;;2.90;;
18391;SDS011;9322;50.932;5.318;2022-07-29T00:52:42;11.93;;;2.40;;
18391;SDS011;9322;50.932;5.318;2022-07-29T00:55:09;4.27;;;2.80;;
18391;SDS011;9322;50.932;5.318;2022-07-29T00:57:37;9.40;;;2.93;;
18391;SDS011;9322;50.932;5.318;2022-07-29T01:00:04;6.80;;;2.33;;
18391;SDS011;9322;50.932;5.318;2022-07-29T01:02:31;8.00;;;2.60;;
18391;SDS011;9322;50.932;5.318;2022-07-29T01:04:56;8.70;;;2.60;;
18391;SDS011;9322;50.932;5.318;2022-07-29T01:07:23;4.43;;;2.30;;
18391;SDS011;9322;50.932;5.318;2022-07-29T01:09:51;5.90;;;2.40;;
18391;SDS011;9322;50.932;5.318;2022-07-29T01:12:23;11.40;;;2.73;;
18391;SDS011;9322;50.932;5.318;2022-07-29T01:14:50;10.80;;;2.20;;
18391;SDS011;9322;50.932;5.318;2022-07-29T01:17:24;5.47;;;2.30;;
18391;SDS011;9322;50.932;5.318;2022-07-29T01:31:05;12.73;;;2.40;;
18391;SDS011;9322;50.932;5.318;2022-07-29T01:33:33;6.30;;;1.83;;
18391;SDS011;9322;50.932;5.318;2022-07-29T01:39:11;4.40;;;1.80;;
18391;SDS011;9322;50.932;5.318;2022-07-29T01:41:55;14.70;;;2.40;;
18391;SDS011;9322;50.932;5.318;2022-07-29T01:44:35;5.30;;;2.20;;
18391;SDS011;9322;50.932;5.318;2022-07-29T01:47:17;9.07;;;2.07;;
18391;SDS011;9322;50.932;5.318;2022-07-29T01:49:47;8.73;;;2.10;;
18391;SDS011;9322;50.932;5.318;2022-07-29T01:52:36;6.20;;;2.43;;
18391;SDS011;9322;50.932;5.318;2022-07-29T01:55:12;6.40;;;2.60;;
18391;SDS011;9322;50.932;5.318;2022-07-29T01:57:42;8.57;;;2.40;;
18391;SDS011;9322;50.932;5.318;2022-07-29T02:00:10;6.97;;;2.40;;
18391;SDS011;9322;50.932;5.318;2022-07-29T02:02:37;6.40;;;2.73;;
18391;SDS011;9322;50.932;5.318;2022-07-29T02:05:06;8.77;;;2.57;;
18391;SDS011;9322;50.932;5.318;2022-07-29T02:07:35;7.67;;;3.27;;
18391;SDS011;9322;50.932;5.318;2022-07-29T02:10:03;11.03;;;2.80;;
18391;SDS011;9322;50.932;5.318;2022-07-29T02:12:30;6.93;;;2.50;;
18391;SDS011;9322;50.932;5.318;2022-07-29T02:14:58;10.57;;;3.00;;
18391;SDS011;9322;50.932;5.318;2022-07-29T02:17:31;11.63;;;2.80;;
18391;SDS011;9322;50.932;5.318;2022-07-29T02:20:01;10.60;;;3.10;;
18391;SDS011;9322;50.932;5.318;2022-07-29T02:22:29;10.17;;;3.33;;
18391;SDS011;9322;50.932;5.318;2022-07-29T02:24:57;4.80;;;3.13;;
18391;SDS011;9322;50.932;5.318;2022-07-29T02:27:23;9.60;;;3.30;;
18391;SDS011;9322;50.932;5.318;2022-07-29T02:29:52;9.47;;;2.90;;
18391;SDS011;9322;50.932;5.318;2022-07-29T02:32:18;9.37;;;3.10;;
18391;SDS011;9322;50.932;5.318;2022-07-29T02:34:46;9.90;;;3.10;;
18391;SDS011;9322;50.932;5.318;2022-07-29T02:37:13;9.70;;;3.30;;
18391;SDS011;9322;50.932;5.318;2022-07-29T02:39:42;6.43;;;2.60;;
18391;SDS011;9322;50.932;5.318;2022-07-29T02:42:11;12.30;;;3.00;;
18391;SDS011;9322;50.932;5.318;2022-07-29T02:44:39;6.20;;;2.90;;
18391;SDS011;9322;50.932;5.318;2022-07-29T02:54:58;9.40;;;3.47;;
18391;SDS011;9322;50.932;5.318;2022-07-29T02:57:34;7.00;;;2.70;;
18391;SDS011;9322;50.932;5.318;2022-07-29T03:00:08;7.47;;;2.60;;
18391;SDS011;9322;50.932;5.318;2022-07-29T03:02:37;7.90;;;2.80;;
18391;SDS011;9322;50.932;5.318;2022-07-29T03:05:07;8.10;;;2.77;;
18391;SDS011;9322;50.932;5.318;2022-07-29T03:07:38;8.73;;;2.60;;
18391;SDS011;9322;50.932;5.318;2022-07-29T03:10:06;8.53;;;2.90;;
18391;SDS011;9322;50.932;5.318;2022-07-29T03:12:34;6.47;;;2.90;;
18391;SDS011;9322;50.932;5.318;2022-07-29T03:15:00;8.17;;;2.83;;
18391;SDS011;9322;50.932;5.318;2022-07-29T03:17:27;6.33;;;3.10;;
18391;SDS011;9322;50.932;5.318;2022-07-29T03:19:53;8.43;;;2.90;;
18391;SDS011;9322;50.932;5.318;2022-07-29T03:22:19;7.30;;;2.80;;
18391;SDS011;9322;50.932;5.318;2022-07-29T03:24:45;6.83;;;2.87;;
18391;SDS011;9322;50.932;5.318;2022-07-29T03:27:11;6.50;;;2.63;;
18391;SDS011;9322;50.932;5.318;2022-07-29T03:29:37;5.37;;;2.90;;
18391;SDS011;9322;50.932;5.318;2022-07-29T03:32:03;5.43;;;2.57;;
18391;SDS011;9322;50.932;5.318;2022-07-29T03:34:30;7.93;;;2.80;;
18391;SDS011;9322;50.932;5.318;2022-07-29T03:36:57;5.03;;;2.70;;
18391;SDS011;9322;50.932;5.318;2022-07-29T03:39:24;7.47;;;2.80;;
18391;SDS011;9322;50.932;5.318;2022-07-29T03:41:53;7.50;;;2.80;;
18391;SDS011;9322;50.932;5.318;2022-07-29T03:44:21;7.10;;;2.67;;
18391;SDS011;9322;50.932;5.318;2022-07-29T03:46:49;11.83;;;3.10;;
18391;SDS011;9322;50.932;5.318;2022-07-29T03:49:16;5.47;;;3.10;;
18391;SDS011;9322;50.932;5.318;2022-07-29T03:51:44;8.80;;;3.10;;
18391;SDS011;9322;50.932;5.318;2022-07-29T03:54:11;10.03;;;3.30;;
18391;SDS011;9322;50.932;5.318;2022-07-29T03:56:38;8.17;;;2.90;;
18391;SDS011;9322;50.932;5.318;2022-07-29T03:59:07;12.97;;;2.90;;
18391;SDS011;9322;50.932;5.318;2022-07-29T04:01:33;7.03;;;3.27;;
18391;SDS011;9322;50.932;5.318;2022-07-29T04:04:03;6.43;;;2.97;;
18391;SDS011;9322;50.932;5.318;2022-07-29T04:06:37;8.37;;;3.20;;
18391;SDS011;9322;50.932;5.318;2022-07-29T04:09:07;10.40;;;3.40;;
18391;SDS011;9322;50.932;5.318;2022-07-29T04:11:33;8.60;;;2.90;;
18391;SDS011;9322;50.932;5.318;2022-07-29T04:14:00;10.10;;;3.30;;
18391;SDS011;9322;50.932;5.318;2022-07-29T04:16:26;7.80;;;3.20;;
18391;SDS011;9322;50.932;5.318;2022-07-29T04:18:52;12.70;;;3.90;;
18391;SDS011;9322;50.932;5.318;2022-07-29T04:21:18;7.87;;;3.20;;
18391;SDS011;9322;50.932;5.318;2022-07-29T04:23:43;10.37;;;3.90;;
18391;SDS011;9322;50.932;5.318;2022-07-29T04:26:10;7.77;;;3.27;;
18391;SDS011;9322;50.932;5.318;2022-07-29T04:28:36;6.10;;;3.10;;
18391;SDS011;9322;50.932;5.318;2022-07-29T04:31:04;10.13;;;3.50;;
18391;SDS011;9322;50.932;5.318;2022-07-29T04:33:30;10.83;;;3.63;;
18391;SDS011;9322;50.932;5.318;2022-07-29T04:35:56;13.00;;;3.93;;
18391;SDS011;9322;50.932;5.318;2022-07-29T04:38:21;11.57;;;4.30;;
18391;SDS011;9322;50.932;5.318;2022-07-29T04:40:47;10.23;;;3.97;;
18391;SDS011;9322;50.932;5.318;2022-07-29T04:43:13;12.33;;;4.17;;
18391;SDS011;9322;50.932;5.318;2022-07-29T04:45:39;12.70;;;3.97;;
18391;SDS011;9322;50.932;5.318;2022-07-29T04:48:05;6.93;;;4.30;;
18391;SDS011;9322;50.932;5.318;2022-07-29T04:50:31;8.80;;;4.00;;
18391;SDS011;9322;50.932;5.318;2022-07-29T04:52:57;12.57;;;4.47;;
18391;SDS011;9322;50.932;5.318;2022-07-29T04:55:22;9.73;;;4.70;;
18391;SDS011;9322;50.932;5.318;2022-07-29T04:57:48;9.17;;;4.43;;
18391;SDS011;9322;50.932;5.318;2022-07-29T05:00:13;14.10;;;4.90;;
18391;SDS011;9322;50.932;5.318;2022-07-29T05:02:39;10.57;;;4.90;;
18391;SDS011;9322;50.932;5.318;2022-07-29T05:05:05;9.53;;;5.27;;
18391;SDS011;9322;50.932;5.318;2022-07-29T05:07:31;13.83;;;5.27;;
18391;SDS011;9322;50.932;5.318;2022-07-29T05:09:56;10.87;;;4.80;;
18391;SDS011;9322;50.932;5.318;2022-07-29T05:12:23;12.67;;;4.97;;
18391;SDS011;9322;50.932;5.318;2022-07-29T05:14:49;14.10;;;4.93;;
18391;SDS011;9322;50.932;5.318;2022-07-29T05:17:15;14.67;;;4.63;;
18391;SDS011;9322;50.932;5.318;2022-07-29T05:19:40;7.20;;;4.13;;
18391;SDS011;9322;50.932;5.318;2022-07-29T05:22:06;10.90;;;4.40;;
18391;SDS011;9322;50.932;5.318;2022-07-29T05:24:32;6.60;;;3.70;;
18391;SDS011;9322;50.932;5.318;2022-07-29T05:26:57;10.95;;;3.95;;
18391;SDS011;9322;50.932;5.318;2022-07-29T05:29:23;6.53;;;3.30;;
18391;SDS011;9322;50.932;5.318;2022-07-29T05:31:49;10.35;;;3.47;;
18391;SDS011;9322;50.932;5.318;2022-07-29T05:34:16;6.22;;;3.38;;
18391;SDS011;9322;50.932;5.318;2022-07-29T05:36:43;7.38;;;3.38;;
18391;SDS011;9322;50.932;5.318;2022-07-29T05:39:10;5.22;;;3.33;;
18391;SDS011;9322;50.932;5.318;2022-07-29T05:41:36;6.10;;;3.50;;
18391;SDS011;9322;50.932;5.318;2022-07-29T05:44:02;5.00;;;2.70;;
18391;SDS011;9322;50.932;5.318;2022-07-29T05:46:28;8.38;;;2.88;;
18391;SDS011;9322;50.932;5.318;2022-07-29T05:48:54;8.00;;;2.85;;
18391;SDS011;9322;50.932;5.318;2022-07-29T05:51:20;7.43;;;2.78;;
18391;SDS011;9322;50.932;5.318;2022-07-29T05:53:45;6.13;;;2.50;;
18391;SDS011;9322;50.932;5.318;2022-07-29T05:56:11;7.18;;;2.50;;
18391;SDS011;9322;50.932;5.318;2022-07-29T05:58:37;5.53;;;3.00;;
18391;SDS011;9322;50.932;5.318;2022-07-29T06:01:03;11.65;;;3.13;;
18391;SDS011;9322;50.932;5.318;2022-07-29T06:03:28;8.70;;;3.25;;
18391;SDS011;9322;50.932;5.318;2022-07-29T06:05:55;8.07;;;2.88;;
18391;SDS011;9322;50.932;5.318;2022-07-29T06:08:21;5.30;;;2.72;;
18391;SDS011;9322;50.932;5.318;2022-07-29T06:10:47;9.95;;;3.40;;
18391;SDS011;9322;50.932;5.318;2022-07-29T06:13:12;11.57;;;3.40;;
18391;SDS011;9322;50.932;5.318;2022-07-29T06:15:40;19.05;;;3.95;;
18391;SDS011;9322;50.932;5.318;2022-07-29T06:18:07;9.80;;;3.20;;
18391;SDS011;9322;50.932;5.318;2022-07-29T06:20:34;7.18;;;3.13;;
18391;SDS011;9322;50.932;5.318;2022-07-29T06:23:00;7.22;;;3.20;;
18391;SDS011;9322;50.932;5.318;2022-07-29T06:25:26;9.38;;;3.40;;
18391;SDS011;9322;50.932;5.318;2022-07-29T06:27:56;10.57;;;3.20;;
18391;SDS011;9322;50.932;5.318;2022-07-29T06:30:22;11.02;;;3.95;;
18391;SDS011;9322;50.932;5.318;2022-07-29T06:32:48;11.70;;;3.58;;
18391;SDS011;9322;50.932;5.318;2022-07-29T06:35:14;7.78;;;3.75;;
18391;SDS011;9322;50.932;5.318;2022-07-29T06:37:40;7.10;;;3.40;;
18391;SDS011;9322;50.932;5.318;2022-07-29T06:40:06;9.80;;;3.00;;
18391;SDS011;9322;50.932;5.318;2022-07-29T06:42:51;6.78;;;2.83;;
18391;SDS011;9322;50.932;5.318;2022-07-29T06:45:16;7.20;;;2.85;;
18391;SDS011;9322;50.932;5.318;2022-07-29T06:47:42;8.00;;;3.35;;
18391;SDS011;9322;50.932;5.318;2022-07-29T06:50:08;11.25;;;3.10;;
18391;SDS011;9322;50.932;5.318;2022-07-29T06:52:37;6.93;;;3.40;;
18391;SDS011;9322;50.932;5.318;2022-07-29T06:55:03;7.72;;;3.28;;
18391;SDS011;9322;50.932;5.318;2022-07-29T06:57:29;4.93;;;3.35;;
18391;SDS011;9322;50.932;5.318;2022-07-29T06:59:58;6.65;;;3.40;;
18391;SDS011;9322;50.932;5.318;2022-07-29T07:02:24;6.15;;;3.35;;
18391;SDS011;9322;50.932;5.318;2022-07-29T07:04:50;8.82;;;3.75;;
18391;SDS011;9322;50.932;5.318;2022-07-29T07:07:16;5.97;;;3.30;;
18391;SDS011;9322;50.932;5.318;2022-07-29T07:09:42;5.55;;;3.28;;
18391;SDS011;9322;50.932;5.318;2022-07-29T07:12:08;8.77;;;3.65;;
18391;SDS011;9322;50.932;5.318;2022-07-29T07:14:34;6.68;;;3.50;;
18391;SDS011;9322;50.932;5.318;2022-07-29T07:17:00;9.95;;;3.83;;
18391;SDS011;9322;50.932;5.318;2022-07-29T07:19:26;8.25;;;3.83;;
18391;SDS011;9322;50.932;5.318;2022-07-29T07:21:52;7.85;;;3.53;;
18391;SDS011;9322;50.932;5.318;2022-07-29T07:24:18;4.72;;;3.42;;
18391;SDS011;9322;50.932;5.318;2022-07-29T07:26:44;8.63;;;3.78;;
18391;SDS011;9322;50.932;5.318;2022-07-29T07:29:10;6.18;;;3.50;;
18391;SDS011;9322;50.932;5.318;2022-07-29T07:31:36;10.23;;;3.70;;
18391;SDS011;9322;50.932;5.318;2022-07-29T07:34:03;9.95;;;3.95;;
18391;SDS011;9322;50.932;5.318;2022-07-29T07:36:28;12.07;;;3.40;;
18391;SDS011;9322;50.932;5.318;2022-07-29T07:38:54;6.07;;;3.63;;
18391;SDS011;9322;50.932;5.318;2022-07-29T07:41:20;5.03;;;3.58;;
18391;SDS011;9322;50.932;5.318;2022-07-29T07:43:46;7.97;;;3.60;;
18391;SDS011;9322;50.932;5.318;2022-07-29T07:46:12;6.15;;;3.67;;
18391;SDS011;9322;50.932;5.318;2022-07-29T07:48:38;7.72;;;3.40;;
18391;SDS011;9322;50.932;5.318;2022-07-29T07:51:03;5.15;;;3.20;;
18391;SDS011;9322;50.932;5.318;2022-07-29T07:53:29;6.53;;;3.25;;
18391;SDS011;9322;50.932;5.318;2022-07-29T07:55:55;7.07;;;3.80;;
18391;SDS011;9322;50.932;5.318;2022-07-29T07:58:21;5.93;;;3.13;;
18391;SDS011;9322;50.932;5.318;2022-07-29T08:00:47;6.25;;;3.67;;
18391;SDS011;9322;50.932;5.318;2022-07-29T08:03:13;6.43;;;3.20;;
18391;SDS011;9322;50.932;5.318;2022-07-29T08:05:39;6.38;;;3.13;;
18391;SDS011;9322;50.932;5.318;2022-07-29T08:08:05;7.07;;;3.42;;
18391;SDS011;9322;50.932;5.318;2022-07-29T08:10:32;6.53;;;3.10;;
18391;SDS011;9322;50.932;5.318;2022-07-29T08:13:16;6.65;;;2.88;;
18391;SDS011;9322;50.932;5.318;2022-07-29T08:15:43;6.43;;;3.10;;
18391;SDS011;9322;50.932;5.318;2022-07-29T08:18:10;6.20;;;3.42;;
18391;SDS011;9322;50.932;5.318;2022-07-29T08:20:39;5.90;;;3.03;;
18391;SDS011;9322;50.932;5.318;2022-07-29T08:23:05;6.82;;;3.13;;
18391;SDS011;9322;50.932;5.318;2022-07-29T08:25:33;8.25;;;3.45;;
18391;SDS011;9322;50.932;5.318;2022-07-29T08:28:01;8.02;;;3.42;;
18391;SDS011;9322;50.932;5.318;2022-07-29T08:30:27;8.93;;;3.30;;
18391;SDS011;9322;50.932;5.318;2022-07-29T08:32:53;7.88;;;3.50;;
18391;SDS011;9322;50.932;5.318;2022-07-29T08:35:19;6.70;;;3.20;;
18391;SDS011;9322;50.932;5.318;2022-07-29T08:37:45;7.47;;;3.30;;
18391;SDS011;9322;50.932;5.318;2022-07-29T08:40:11;6.35;;;3.03;;
18391;SDS011;9322;50.932;5.318;2022-07-29T08:42:37;5.97;;;3.38;;
18391;SDS011;9322;50.932;5.318;2022-07-29T08:45:03;8.07;;;3.10;;
18391;SDS011;9322;50.932;5.318;2022-07-29T08:47:29;11.02;;;3.08;;
18391;SDS011;9322;50.932;5.318;2022-07-29T08:49:55;6.07;;;2.75;;
18391;SDS011;9322;50.932;5.318;2022-07-29T08:52:21;4.53;;;2.63;;
18391;SDS011;9322;50.932;5.318;2022-07-29T08:54:51;7.25;;;3.22;;
18391;SDS011;9322;50.932;5.318;2022-07-29T08:57:18;7.57;;;3.08;;
18391;SDS011;9322;50.932;5.318;2022-07-29T08:59:45;5.40;;;3.20;;
18391;SDS011;9322;50.932;5.318;2022-07-29T09:02:20;4.97;;;2.83;;
18391;SDS011;9322;50.932;5.318;2022-07-29T09:04:48;4.20;;;2.97;;
18391;SDS011;9322;50.932;5.318;2022-07-29T09:07:14;8.10;;;3.28;;
18391;SDS011;9322;50.932;5.318;2022-07-29T09:09:41;4.78;;;3.10;;
18391;SDS011;9322;50.932;5.318;2022-07-29T09:12:08;7.43;;;3.17;;
18391;SDS011;9322;50.932;5.318;2022-07-29T09:14:36;4.90;;;3.03;;
18391;SDS011;9322;50.932;5.318;2022-07-29T09:17:02;5.85;;;2.88;;
18391;SDS011;9322;50.932;5.318;2022-07-29T09:19:32;4.10;;;2.85;;
18391;SDS011;9322;50.932;5.318;2022-07-29T09:22:04;4.07;;;2.60;;
18391;SDS011;9322;50.932;5.318;2022-07-29T09:27:00;5.55;;;2.75;;
18391;SDS011;9322;50.932;5.318;2022-07-29T09:29:26;8.20;;;3.10;;
18391;SDS011;9322;50.932;5.318;2022-07-29T09:31:53;5.90;;;2.80;;
18391;SDS011;9322;50.932;5.318;2022-07-29T09:34:23;6.35;;;2.97;;
18391;SDS011;9322;50.932;5.318;2022-07-29T09:36:56;11.95;;;3.00;;
18391;SDS011;9322;50.932;5.318;2022-07-29T09:39:55;4.65;;;2.80;;
18391;SDS011;9322;50.932;5.318;2022-07-29T09:42:15;4.53;;;3.03;;
18391;SDS011;9322;50.932;5.318;2022-07-29T09:44:54;7.00;;;3.08;;
18391;SDS011;9322;50.932;5.318;2022-07-29T09:47:20;3.58;;;2.45;;
18391;SDS011;9322;50.932;5.318;2022-07-29T09:49:58;5.20;;;2.70;;
18391;SDS011;9322;50.932;5.318;2022-07-29T09:52:29;4.90;;;2.45;;
18391;SDS011;9322;50.932;5.318;2022-07-29T09:55:05;4.03;;;2.70;;
18391;SDS011;9322;50.932;5.318;2022-07-29T09:57:31;5.25;;;3.05;;
18391;SDS011;9322;50.932;5.318;2022-07-29T09:59:58;5.75;;;2.70;;
18391;SDS011;9322;50.932;5.318;2022-07-29T10:02:29;6.53;;;2.78;;
18391;SDS011;9322;50.932;5.318;2022-07-29T10:04:56;7.43;;;2.55;;
18391;SDS011;9322;50.932;5.318;2022-07-29T10:07:22;4.95;;;2.40;;
18391;SDS011;9322;50.932;5.318;2022-07-29T10:09:55;4.95;;;2.40;;
18391;SDS011;9322;50.932;5.318;2022-07-29T10:12:22;4.75;;;2.28;;
18391;SDS011;9322;50.932;5.318;2022-07-29T10:14:48;5.53;;;2.35;;
18391;SDS011;9322;50.932;5.318;2022-07-29T10:17:14;4.38;;;2.53;;
18391;SDS011;9322;50.932;5.318;2022-07-29T10:19:41;5.40;;;2.72;;
18391;SDS011;9322;50.932;5.318;2022-07-29T10:22:08;5.72;;;2.20;;
18391;SDS011;9322;50.932;5.318;2022-07-29T10:24:35;7.40;;;2.75;;
18391;SDS011;9322;50.932;5.318;2022-07-29T10:27:03;3.28;;;2.30;;
18391;SDS011;9322;50.932;5.318;2022-07-29T10:29:30;6.18;;;2.50;;
18391;SDS011;9322;50.932;5.318;2022-07-29T10:32:07;4.57;;;2.50;;
18391;SDS011;9322;50.932;5.318;2022-07-29T10:38:01;5.07;;;2.67;;
18391;SDS011;9322;50.932;5.318;2022-07-29T10:43:45;4.13;;;2.55;;
18391;SDS011;9322;50.932;5.318;2022-07-29T10:46:12;7.35;;;2.67;;
18391;SDS011;9322;50.932;5.318;2022-07-29T10:54:16;13.85;;;3.28;;
18391;SDS011;9322;50.932;5.318;2022-07-29T10:56:42;8.20;;;2.63;;
18391;SDS011;9322;50.932;5.318;2022-07-29T11:01:46;6.72;;;2.45;;
18391;SDS011;9322;50.932;5.318;2022-07-29T11:04:13;6.22;;;2.60;;
18391;SDS011;9322;50.932;5.318;2022-07-29T11:09:29;4.72;;;2.70;;
18391;SDS011;9322;50.932;5.318;2022-07-29T11:11:55;5.00;;;2.67;;
18391;SDS011;9322;50.932;5.318;2022-07-29T11:17:22;7.80;;;2.53;;
18391;SDS011;9322;50.932;5.318;2022-07-29T11:19:48;4.80;;;2.20;;
18391;SDS011;9322;50.932;5.318;2022-07-29T11:22:32;6.75;;;2.70;;
18391;SDS011;9322;50.932;5.318;2022-07-29T11:25:15;4.20;;;2.63;;
18391;SDS011;9322;50.932;5.318;2022-07-29T11:27:42;5.63;;;2.45;;
18391;SDS011;9322;50.932;5.318;2022-07-29T11:30:12;5.55;;;2.50;;
18391;SDS011;9322;50.932;5.318;2022-07-29T11:32:38;6.63;;;2.10;;
18391;SDS011;9322;50.932;5.318;2022-07-29T11:37:43;6.07;;;2.50;;
18391;SDS011;9322;50.932;5.318;2022-07-29T11:40:29;6.95;;;2.63;;
18391;SDS011;9322;50.932;5.318;2022-07-29T11:42:55;6.88;;;2.55;;
18391;SDS011;9322;50.932;5.318;2022-07-29T11:45:21;4.05;;;2.20;;
18391;SDS011;9322;50.932;5.318;2022-07-29T11:50:37;2.63;;;2.10;;
18391;SDS011;9322;50.932;5.318;2022-07-29T11:53:02;4.68;;;2.08;;
18391;SDS011;9322;50.932;5.318;2022-07-29T11:55:36;4.07;;;2.20;;
18391;SDS011;9322;50.932;5.318;2022-07-29T11:58:06;4.28;;;2.45;;
18391;SDS011;9322;50.932;5.318;2022-07-29T12:00:33;5.38;;;3.10;;
18391;SDS011;9322;50.932;5.318;2022-07-29T12:02:59;4.88;;;2.53;;
18391;SDS011;9322;50.932;5.318;2022-07-29T12:08:06;3.90;;;2.42;;
18391;SDS011;9322;50.932;5.318;2022-07-29T12:10:33;3.97;;;2.30;;
18391;SDS011;9322;50.932;5.318;2022-07-29T12:12:59;4.30;;;2.15;;
18391;SDS011;9322;50.932;5.318;2022-07-29T12:15:24;4.90;;;2.25;;
18391;SDS011;9322;50.932;5.318;2022-07-29T12:17:51;5.00;;;2.22;;
18391;SDS011;9322;50.932;5.318;2022-07-29T12:20:27;5.20;;;2.30;;
18391;SDS011;9322;50.932;5.318;2022-07-29T12:22:54;3.80;;;2.38;;
18391;SDS011;9322;50.932;5.318;2022-07-29T12:25:21;4.03;;;2.60;;
18391;SDS011;9322;50.932;5.318;2022-07-29T12:28:02;4.57;;;2.50;;
18391;SDS011;9322;50.932;5.318;2022-07-29T12:33:12;5.38;;;2.15;;
18391;SDS011;9322;50.932;5.318;2022-07-29T12:35:39;4.85;;;2.25;;
18391;SDS011;9322;50.932;5.318;2022-07-29T12:38:06;4.70;;;3.03;;
18391;SDS011;9322;50.932;5.318;2022-07-29T12:40:36;4.97;;;2.20;;
18391;SDS011;9322;50.932;5.318;2022-07-29T12:43:20;4.63;;;2.40;;
18391;SDS011;9322;50.932;5.318;2022-07-29T12:45:47;3.17;;;1.95;;
18391;SDS011;9322;50.932;5.318;2022-07-29T12:48:15;3.83;;;1.90;;
18391;SDS011;9322;50.932;5.318;2022-07-29T12:50:58;4.10;;;2.15;;
18391;SDS011;9322;50.932;5.318;2022-07-29T12:53:26;3.95;;;2.10;;
18391;SDS011;9322;50.932;5.318;2022-07-29T12:55:53;5.03;;;1.98;;
18391;SDS011;9322;50.932;5.318;2022-07-29T12:58:29;3.58;;;2.05;;
18391;SDS011;9322;50.932;5.318;2022-07-29T13:03:47;4.43;;;2.15;;
18391;SDS011;9322;50.932;5.318;2022-07-29T13:09:06;8.10;;;2.30;;
18391;SDS011;9322;50.932;5.318;2022-07-29T13:11:32;5.03;;;2.50;;
18391;SDS011;9322;50.932;5.318;2022-07-29T13:14:10;3.42;;;2.40;;
18391;SDS011;9322;50.932;5.318;2022-07-29T13:17:00;5.80;;;2.20;;
18391;SDS011;9322;50.932;5.318;2022-07-29T13:19:34;4.80;;;2.47;;
18391;SDS011;9322;50.932;5.318;2022-07-29T13:22:21;3.63;;;2.30;;
18391;SDS011;9322;50.932;5.318;2022-07-29T13:24:54;2.45;;;2.08;;
18391;SDS011;9322;50.932;5.318;2022-07-29T13:27:27;5.85;;;2.50;;
18391;SDS011;9322;50.932;5.318;2022-07-29T13:29:54;4.40;;;2.20;;
18391;SDS011;9322;50.932;5.318;2022-07-29T13:32:21;4.88;;;1.90;;
18391;SDS011;9322;50.932;5.318;2022-07-29T13:34:47;4.97;;;2.20;;
18391;SDS011;9322;50.932;5.318;2022-07-29T13:37:13;3.72;;;2.00;;
18391;SDS011;9322;50.932;5.318;2022-07-29T13:39:39;6.38;;;2.13;;
18391;SDS011;9322;50.932;5.318;2022-07-29T13:42:06;4.15;;;1.90;;
18391;SDS011;9322;50.932;5.318;2022-07-29T13:44:33;4.22;;;2.00;;
18391;SDS011;9322;50.932;5.318;2022-07-29T13:46:59;3.35;;;2.00;;
18391;SDS011;9322;50.932;5.318;2022-07-29T13:49:25;4.40;;;2.08;;
18391;SDS011;9322;50.932;5.318;2022-07-29T13:51:51;4.05;;;1.95;;
18391;SDS011;9322;50.932;5.318;2022-07-29T13:54:16;4.45;;;1.92;;
18391;SDS011;9322;50.932;5.318;2022-07-29T13:56:42;5.43;;;1.80;;
18391;SDS011;9322;50.932;5.318;2022-07-29T13:59:08;2.20;;;1.88;;
18391;SDS011;9322;50.932;5.318;2022-07-29T14:01:34;3.80;;;1.77;;
18391;SDS011;9322;50.932;5.318;2022-07-29T14:04:00;4.30;;;1.85;;
18391;SDS011;9322;50.932;5.318;2022-07-29T14:06:26;5.70;;;2.00;;
18391;SDS011;9322;50.932;5.318;2022-07-29T14:08:52;5.65;;;2.33;;
18391;SDS011;9322;50.932;5.318;2022-07-29T14:11:17;6.85;;;2.40;;
18391;SDS011;9322;50.932;5.318;2022-07-29T14:13:43;7.18;;;2.03;;
18391;SDS011;9322;50.932;5.318;2022-07-29T14:16:09;4.15;;;2.08;;
18391;SDS011;9322;50.932;5.318;2022-07-29T14:18:34;5.28;;;2.38;;
18391;SDS011;9322;50.932;5.318;2022-07-29T14:21:00;4.88;;;1.92;;
18391;SDS011;9322;50.932;5.318;2022-07-29T14:23:26;6.47;;;2.28;;
18391;SDS011;9322;50.932;5.318;2022-07-29T14:25:52;4.03;;;2.20;;
18391;SDS011;9322;50.932;5.318;2022-07-29T14:28:17;5.78;;;2.13;;
18391;SDS011;9322;50.932;5.318;2022-07-29T14:30:43;8.63;;;2.40;;
18391;SDS011;9322;50.932;5.318;2022-07-29T14:33:09;6.50;;;2.58;;
18391;SDS011;9322;50.932;5.318;2022-07-29T14:35:34;5.53;;;2.03;;
18391;SDS011;9322;50.932;5.318;2022-07-29T14:38:00;7.43;;;2.38;;
18391;SDS011;9322;50.932;5.318;2022-07-29T14:40:26;7.85;;;2.20;;
18391;SDS011;9322;50.932;5.318;2022-07-29T14:42:51;6.47;;;2.50;;
18391;SDS011;9322;50.932;5.318;2022-07-29T14:45:17;6.57;;;2.25;;
18391;SDS011;9322;50.932;5.318;2022-07-29T14:47:43;5.50;;;2.28;;
18391;SDS011;9322;50.932;5.318;2022-07-29T14:50:09;9.65;;;2.20;;
18391;SDS011;9322;50.932;5.318;2022-07-29T14:52:35;4.95;;;2.35;;
18391;SDS011;9322;50.932;5.318;2022-07-29T14:55:00;7.60;;;2.00;;
18391;SDS011;9322;50.932;5.318;2022-07-29T14:57:26;6.93;;;2.00;;
18391;SDS011;9322;50.932;5.318;2022-07-29T14:59:52;5.68;;;2.10;;
18391;SDS011;9322;50.932;5.318;2022-07-29T15:02:17;6.20;;;2.22;;
18391;SDS011;9322;50.932;5.318;2022-07-29T15:04:43;13.20;;;2.30;;
18391;SDS011;9322;50.932;5.318;2022-07-29T15:07:11;5.07;;;2.00;;
18391;SDS011;9322;50.932;5.318;2022-07-29T15:09:36;5.35;;;2.15;;
18391;SDS011;9322;50.932;5.318;2022-07-29T15:12:03;5.30;;;2.00;;
18391;SDS011;9322;50.932;5.318;2022-07-29T15:14:29;6.38;;;2.42;;
18391;SDS011;9322;50.932;5.318;2022-07-29T15:16:56;4.60;;;2.00;;
18391;SDS011;9322;50.932;5.318;2022-07-29T15:19:22;6.25;;;2.33;;
18391;SDS011;9322;50.932;5.318;2022-07-29T15:21:48;4.63;;;2.10;;
18391;SDS011;9322;50.932;5.318;2022-07-29T15:24:14;4.55;;;2.08;;
18391;SDS011;9322;50.932;5.318;2022-07-29T15:26:41;5.32;;;1.88;;
18391;SDS011;9322;50.932;5.318;2022-07-29T15:29:07;3.92;;;1.80;;
18391;SDS011;9322;50.932;5.318;2022-07-29T15:31:33;5.40;;;2.15;;
18391;SDS011;9322;50.932;5.318;2022-07-29T15:33:59;5.50;;;2.15;;
18391;SDS011;9322;50.932;5.318;2022-07-29T15:36:24;3.95;;;2.10;;
18391;SDS011;9322;50.932;5.318;2022-07-29T15:38:51;8.20;;;2.00;;
18391;SDS011;9322;50.932;5.318;2022-07-29T15:41:18;7.53;;;2.10;;
18391;SDS011;9322;50.932;5.318;2022-07-29T15:43:44;14.13;;;2.17;;
18391;SDS011;9322;50.932;5.318;2022-07-29T15:46:14;5.20;;;2.13;;
18391;SDS011;9322;50.932;5.318;2022-07-29T15:48:59;3.55;;;2.05;;
18391;SDS011;9322;50.932;5.318;2022-07-29T15:51:25;5.65;;;2.10;;
18391;SDS011;9322;50.932;5.318;2022-07-29T15:53:51;9.60;;;2.13;;
18391;SDS011;9322;50.932;5.318;2022-07-29T15:56:17;5.55;;;2.28;;
18391;SDS011;9322;50.932;5.318;2022-07-29T15:58:43;4.28;;;2.22;;
18391;SDS011;9322;50.932;5.318;2022-07-29T16:01:08;6.25;;;2.30;;
18391;SDS011;9322;50.932;5.318;2022-07-29T16:03:34;14.32;;;2.10;;
18391;SDS011;9322;50.932;5.318;2022-07-29T16:06:00;14.80;;;2.50;;